Saint Ignatius, Montana
Current Conditions -  °F | °C
As of 4:53 PM on Sunday 21 Dec 2014 (Local Time) from KMSO Reporting Station
Clear Clear  
Wind Chill: 28°   Ceiling: Unl
Heat Index: 36°   Visibility: 10mi
Dew Point: 31°   Wind: 10mph
Humidity: 82%   Direction: 310°NW
Pressure: 29.82"   Gusts: NA
Location:  47.32°N, 114.09°W
Report Text: KMSO 212353Z 31009KT 10SM CLR 02/M01 A2982 RMK AO2 SLP121 60005 T00221006 10061 20022 53034 $
Loading
Personal Weather Stations






























Interactive Weather Map New forecast layout! Learn more

10-Day Weather Forecast

Advertisements
Track Severe Weather on mobile